createdAt,value
2022-09-05T00:01:48.969Z,999.90
2022-09-05T00:04:26.546Z,803.83
2022-09-05T00:07:03.316Z,831.00
2022-09-05T00:09:56.192Z,760.53
2022-09-05T00:12:25.641Z,999.90
2022-09-05T00:15:17.610Z,999.90
2022-09-05T00:22:09.471Z,720.07
2022-09-05T00:24:30.624Z,734.07
2022-09-05T00:24:35.811Z,999.90
2022-09-05T00:27:07.396Z,749.90
2022-09-05T00:31:07.527Z,277.57
2022-09-05T00:33:17.217Z,815.23
2022-09-05T00:36:02.505Z,807.77
2022-09-05T00:38:34.818Z,305.63
2022-09-05T00:41:08.158Z,542.30
2022-09-05T00:43:39.915Z,686.10
2022-09-05T00:46:14.654Z,761.73
2022-09-05T00:48:50.575Z,835.20
2022-09-05T00:51:29.307Z,386.90
2022-09-05T00:54:24.826Z,434.00
2022-09-05T00:57:23.949Z,862.50
2022-09-05T01:00:06.273Z,237.53
2022-09-05T01:03:02.785Z,768.93
2022-09-05T01:05:48.263Z,999.90
2022-09-05T01:08:42.074Z,999.90
2022-09-05T01:11:18.481Z,999.90
2022-09-05T01:13:55.421Z,999.90
2022-09-05T01:16:29.657Z,999.90
2022-09-05T01:19:15.961Z,999.90
2022-09-05T01:22:09.395Z,747.37
2022-09-05T01:24:51.179Z,725.97
2022-09-05T01:29:13.955Z,999.90
2022-09-05T01:30:41.675Z,999.90
2022-09-05T01:33:24.834Z,832.27
2022-09-05T01:36:11.751Z,852.50
2022-09-05T01:39:32.551Z,493.07
2022-09-05T01:41:55.261Z,230.07
2022-09-05T01:44:38.406Z,842.27
2022-09-05T01:47:30.963Z,778.90
2022-09-05T01:50:10.755Z,792.43
2022-09-05T01:53:03.261Z,707.13
2022-09-05T01:56:04.755Z,768.33
2022-09-05T01:58:47.990Z,741.93
2022-09-05T02:01:32.266Z,808.63
2022-09-05T02:04:27.995Z,273.23
2022-09-05T02:07:30.395Z,386.87
2022-09-05T02:10:08.755Z,232.23
2022-09-05T02:13:01.899Z,399.27
2022-09-05T02:15:41.591Z,411.70
2022-09-05T02:18:19.294Z,483.43
2022-09-05T02:20:53.694Z,486.13
2022-09-05T02:23:41.898Z,510.37
2022-09-05T02:26:17.269Z,868.23
2022-09-05T02:28:52.350Z,336.27
2022-09-05T02:31:25.889Z,846.30
2022-09-05T02:34:02.240Z,824.20
2022-09-05T02:36:39.317Z,234.50
2022-09-05T02:43:12.834Z,233.40
2022-09-05T02:45:18.725Z,860.80
2022-09-05T02:45:30.688Z,593.37
2022-09-05T02:48:15.998Z,690.10
2022-09-05T02:57:24.947Z,776.23
2022-09-05T02:57:34.885Z,763.70
2022-09-05T02:57:44.407Z,826.00
2022-09-05T03:00:02.208Z,706.03
2022-09-05T03:02:37.604Z,413.20
2022-09-05T03:05:15.495Z,443.03
2022-09-05T03:08:09.080Z,585.30
2022-09-05T03:11:14.995Z,452.97
2022-09-05T03:14:12.008Z,411.17
2022-09-05T03:17:28.554Z,564.57
2022-09-05T03:20:44.486Z,318.57
2022-09-05T03:23:33.176Z,774.97
2022-09-05T03:26:37.276Z,840.03
2022-09-05T03:29:41.647Z,817.13
2022-09-05T03:32:50.621Z,244.97
2022-09-05T03:35:50.476Z,856.40
2022-09-05T03:39:10.553Z,449.03
2022-09-05T03:41:55.374Z,765.03
2022-09-05T03:44:39.592Z,999.90
2022-09-05T03:47:38.695Z,999.90
2022-09-05T03:53:29.398Z,999.90
2022-09-05T03:57:17.334Z,999.90
2022-09-05T03:57:26.007Z,999.90
2022-09-05T03:59:54.751Z,999.90
2022-09-05T04:04:00.343Z,999.90
2022-09-05T04:08:17.422Z,999.90
2022-09-05T04:08:33.979Z,729.77
2022-09-05T04:11:07.310Z,803.13
2022-09-05T04:13:40.583Z,860.87
2022-09-05T04:16:14.962Z,900.07
2022-09-05T04:18:47.268Z,524.47
2022-09-05T04:21:21.335Z,696.17
2022-09-05T04:24:07.237Z,752.43
2022-09-05T04:27:01.713Z,602.83
2022-09-05T04:29:43.823Z,529.50
2022-09-05T04:32:24.665Z,548.90
2022-09-05T04:35:07.748Z,505.83
2022-09-05T04:37:48.899Z,621.37
2022-09-05T04:40:49.416Z,694.43
2022-09-05T04:43:28.982Z,633.57
2022-09-05T04:46:18.770Z,379.63
2022-09-05T04:48:54.581Z,999.90
2022-09-05T04:52:00.237Z,999.90
2022-09-05T04:54:38.468Z,999.90
2022-09-05T04:57:20.711Z,999.90
2022-09-05T05:05:58.590Z,999.90
2022-09-05T05:06:13.494Z,999.90
2022-09-05T05:06:17.107Z,999.90
2022-09-05T05:08:47.669Z,999.90
2022-09-05T05:17:55.284Z,999.90
2022-09-05T05:18:08.144Z,999.90
2022-09-05T05:18:15.156Z,999.90
2022-09-05T05:20:41.600Z,999.90
2022-09-05T05:23:06.536Z,742.60
2022-09-05T05:25:50.439Z,826.67
2022-09-05T05:28:27.890Z,857.03
2022-09-05T05:31:01.632Z,597.33
2022-09-05T05:33:34.676Z,832.37
2022-09-05T05:36:07.565Z,881.00
2022-09-05T05:38:44.365Z,963.47
2022-09-05T05:41:20.888Z,979.00
2022-09-05T05:43:50.614Z,959.07
2022-09-05T05:46:29.499Z,979.20
2022-09-05T05:49:14.538Z,932.33
2022-09-05T05:52:02.648Z,999.90
2022-09-05T05:54:39.834Z,932.83
2022-09-05T05:57:25.572Z,999.90
2022-09-05T06:00:02.173Z,999.90
2022-09-05T06:03:26.373Z,999.90
2022-09-05T06:06:16.609Z,999.90
2022-09-05T06:14:37.485Z,953.27
2022-09-05T06:15:05.802Z,999.90
2022-09-05T06:16:17.706Z,990.27
2022-09-05T06:19:17.714Z,986.40
2022-09-05T06:22:25.734Z,985.20
2022-09-05T06:25:42.500Z,999.90
2022-09-05T06:28:21.067Z,999.90
2022-09-05T06:31:29.838Z,999.90
2022-09-05T06:33:59.956Z,999.90
2022-09-05T06:36:48.908Z,999.90
2022-09-05T06:39:26.492Z,999.90
2022-09-05T06:42:30.715Z,999.90
2022-09-05T06:45:32.610Z,936.20
2022-09-05T06:48:10.305Z,999.90
2022-09-05T06:51:09.446Z,836.73
2022-09-05T06:54:16.092Z,999.90
2022-09-05T06:57:11.497Z,999.90
2022-09-05T07:00:24.157Z,999.90
2022-09-05T07:03:13.527Z,999.90
2022-09-05T07:05:45.800Z,999.90
2022-09-05T07:08:35.069Z,999.90
2022-09-05T07:11:17.734Z,999.90
2022-09-05T07:13:58.489Z,999.90
2022-09-05T07:16:39.281Z,999.90
2022-09-05T07:19:29.482Z,999.90
2022-09-05T07:22:18.462Z,999.90
2022-09-05T07:25:09.677Z,999.90
2022-09-05T07:28:27.054Z,999.90
2022-09-05T07:30:33.948Z,999.90
2022-09-05T07:33:04.564Z,999.90
2022-09-05T07:35:41.914Z,999.90
2022-09-05T07:38:16.639Z,999.90
2022-09-05T07:40:52.795Z,999.90
2022-09-05T07:43:24.274Z,999.90
2022-09-05T07:46:06.430Z,999.90
2022-09-05T07:48:38.549Z,999.90
2022-09-05T07:54:30.026Z,999.90
2022-09-05T07:56:54.388Z,999.90
2022-09-05T07:59:53.595Z,999.90
2022-09-05T08:02:22.003Z,999.90
2022-09-05T08:04:50.275Z,999.90
2022-09-05T08:07:49.412Z,999.90
2022-09-05T08:10:15.695Z,999.90
2022-09-05T08:13:23.910Z,999.90
2022-09-05T08:16:11.015Z,999.90
2022-09-05T08:18:37.652Z,999.90
2022-09-05T08:21:13.997Z,999.90
2022-09-05T08:23:53.489Z,999.90
2022-09-05T08:26:32.361Z,999.90
2022-09-05T08:29:09.472Z,999.90
2022-09-05T08:31:41.793Z,999.90
2022-09-05T08:34:18.518Z,999.90
2022-09-05T08:36:56.101Z,999.90
2022-09-05T08:39:29.394Z,999.90
2022-09-05T08:42:09.565Z,999.90
2022-09-05T08:46:42.698Z,999.90
2022-09-05T08:47:45.598Z,999.90
2022-09-05T08:50:37.365Z,999.90
2022-09-05T08:53:38.270Z,999.90
2022-09-05T08:56:20.710Z,999.90
2022-09-05T08:59:32.128Z,999.90
2022-09-05T09:02:46.864Z,999.90
2022-09-05T09:05:14.826Z,999.90
2022-09-05T09:07:51.352Z,999.90
2022-09-05T09:10:31.315Z,999.90
2022-09-05T09:13:13.909Z,999.90
2022-09-05T09:15:50.071Z,999.90
2022-09-05T09:18:20.314Z,999.90
2022-09-05T09:20:52.813Z,999.90
2022-09-05T09:23:42.083Z,999.90
2022-09-05T09:26:15.765Z,999.90
2022-09-05T09:28:51.843Z,999.90
2022-09-05T09:31:33.649Z,999.90
2022-09-05T09:34:19.502Z,999.90
2022-09-05T09:37:50.819Z,999.90
2022-09-05T09:41:00.931Z,999.90
2022-09-05T09:43:53.951Z,999.90
2022-09-05T09:46:34.056Z,999.90
2022-09-05T09:49:23.364Z,999.90
2022-09-05T09:52:22.014Z,999.90
2022-09-05T09:55:39.080Z,999.90
2022-09-05T09:58:44.781Z,999.90
2022-09-05T10:01:36.483Z,999.90
2022-09-05T10:10:34.238Z,999.90
2022-09-05T10:10:44.579Z,999.90
2022-09-05T10:11:51.485Z,999.90
2022-09-05T10:14:49.948Z,999.90
2022-09-05T10:17:43.985Z,999.90
2022-09-05T10:20:38.071Z,999.90
2022-09-05T10:23:26.969Z,999.90
2022-09-05T10:26:37.482Z,999.90
2022-09-05T10:29:35.028Z,999.90
2022-09-05T10:35:17.847Z,999.90
2022-09-05T10:35:19.675Z,999.90
2022-09-05T10:37:56.049Z,999.90
2022-09-05T10:40:26.465Z,999.90
2022-09-05T10:43:01.201Z,999.90
2022-09-05T10:45:39.936Z,999.90
2022-09-05T10:48:17.507Z,999.90
2022-09-05T10:50:53.636Z,999.90
2022-09-05T10:53:39.791Z,999.90
2022-09-05T10:56:14.360Z,999.90
2022-09-05T11:00:58.077Z,999.90
2022-09-05T11:02:27.827Z,999.90
2022-09-05T11:04:52.864Z,999.90
2022-09-05T11:07:36.907Z,999.90
2022-09-05T11:10:11.783Z,999.90
2022-09-05T11:13:05.663Z,999.90
2022-09-05T11:15:51.199Z,999.90
2022-09-05T11:18:55.129Z,999.90
2022-09-05T11:21:31.934Z,999.90
2022-09-05T11:24:17.440Z,999.90
2022-09-05T11:26:49.754Z,999.90
2022-09-05T11:29:42.313Z,999.90
2022-09-05T11:36:06.835Z,999.90
2022-09-05T11:40:00.458Z,999.90
2022-09-05T11:40:24.659Z,999.90
2022-09-05T11:42:01.625Z,999.90
2022-09-05T11:44:35.716Z,999.90
2022-09-05T11:47:37.095Z,999.90
2022-09-05T11:50:28.569Z,999.90
2022-09-05T11:53:43.050Z,999.90
2022-09-05T11:56:50.534Z,999.90
2022-09-05T12:00:17.194Z,999.90
2022-09-05T12:03:53.542Z,999.90
2022-09-05T12:06:34.509Z,999.90
2022-09-05T12:09:20.370Z,999.90
2022-09-05T12:12:30.049Z,999.90
2022-09-05T12:15:07.257Z,999.90
2022-09-05T12:17:48.691Z,999.90
2022-09-05T12:20:27.661Z,999.90
2022-09-05T12:23:02.235Z,999.90
2022-09-05T12:27:39.633Z,999.90
2022-09-05T12:29:27.371Z,999.90
2022-09-05T12:32:36.563Z,999.90
2022-09-05T12:36:12.660Z,999.90
2022-09-05T12:40:55.039Z,999.90
2022-09-05T12:41:35.078Z,999.90
2022-09-05T12:44:36.366Z,999.90
2022-09-05T12:46:26.169Z,999.90
2022-09-05T12:49:01.461Z,999.90
2022-09-05T12:51:46.827Z,999.90
2022-09-05T12:54:33.443Z,999.90
2022-09-05T13:01:25.765Z,999.90
2022-09-05T13:02:56.721Z,999.90
2022-09-05T13:03:11.484Z,999.90
2022-09-05T13:05:52.653Z,999.90
2022-09-05T13:08:23.439Z,999.90
2022-09-05T13:14:49.687Z,999.90
2022-09-05T13:14:57.663Z,999.90
2022-09-05T13:16:41.678Z,999.90
2022-09-05T13:19:26.209Z,999.90
2022-09-05T13:21:57.499Z,999.90
2022-09-05T13:24:30.726Z,999.90
2022-09-05T13:27:09.424Z,999.90
2022-09-05T13:30:23.868Z,999.90
2022-09-05T13:38:01.125Z,999.90
2022-09-05T13:38:10.025Z,999.90
2022-09-05T13:38:48.233Z,999.90
2022-09-05T13:41:27.692Z,999.90
2022-09-05T13:44:24.793Z,999.90
2022-09-05T13:46:58.894Z,999.90
2022-09-05T13:49:33.162Z,999.90
2022-09-05T13:52:22.016Z,999.90
2022-09-05T13:55:01.188Z,999.90
2022-09-05T13:57:37.078Z,999.90
2022-09-05T14:00:38.960Z,999.90
2022-09-05T14:03:47.125Z,999.90
2022-09-05T14:10:06.521Z,999.90
2022-09-05T14:12:39.721Z,999.90
2022-09-05T14:15:25.268Z,999.90
2022-09-05T14:18:00.452Z,999.90
2022-09-05T14:20:50.317Z,999.90
2022-09-05T14:23:22.051Z,999.90
2022-09-05T14:25:57.071Z,999.90
2022-09-05T14:28:33.053Z,999.90
2022-09-05T14:35:15.039Z,999.90
2022-09-05T14:37:45.204Z,999.90
2022-09-05T14:37:49.288Z,999.90
2022-09-05T14:40:30.242Z,999.90
2022-09-05T14:43:30.755Z,999.90
2022-09-05T14:46:28.099Z,999.90
2022-09-05T14:49:20.095Z,999.90
2022-09-05T14:51:49.507Z,999.90
2022-09-05T15:00:12.140Z,999.90
2022-09-05T15:03:00.134Z,999.90
2022-09-05T15:03:05.329Z,999.90
2022-09-05T15:05:44.662Z,999.90
2022-09-05T15:10:52.514Z,999.90
2022-09-05T15:12:23.540Z,999.90
2022-09-05T15:14:02.399Z,999.90
2022-09-05T15:16:35.427Z,999.90
2022-09-05T15:19:03.766Z,999.90
2022-09-05T15:21:36.496Z,999.90
2022-09-05T15:24:17.137Z,999.90
2022-09-05T15:26:51.974Z,999.90
2022-09-05T15:29:23.392Z,999.90
2022-09-05T15:32:09.401Z,999.90
2022-09-05T15:34:39.927Z,999.90
2022-09-05T15:37:28.677Z,999.90
2022-09-05T15:40:22.679Z,999.90
2022-09-05T15:42:55.666Z,999.90
2022-09-05T15:45:27.942Z,999.90
2022-09-05T15:48:18.328Z,999.90
2022-09-05T15:50:51.127Z,999.90
2022-09-05T15:53:25.308Z,999.90
2022-09-05T15:55:59.890Z,999.90
2022-09-05T15:58:52.285Z,999.90
2022-09-05T16:01:30.304Z,999.90
2022-09-05T16:08:15.355Z,999.90
2022-09-05T16:10:46.541Z,999.90
2022-09-05T16:10:50.977Z,999.90
2022-09-05T16:12:45.542Z,999.90
2022-09-05T16:18:47.647Z,999.90
2022-09-05T16:23:16.666Z,999.90
2022-09-05T16:23:26.195Z,999.90
2022-09-05T16:24:02.484Z,999.90
2022-09-05T16:26:35.043Z,999.90
2022-09-05T16:29:11.377Z,999.90
2022-09-05T16:31:46.455Z,999.90
2022-09-05T16:34:22.610Z,999.90
2022-09-05T16:37:08.903Z,999.90
2022-09-05T16:39:41.192Z,999.90
2022-09-05T16:42:18.615Z,999.90
2022-09-05T16:44:52.441Z,999.90
2022-09-05T16:47:25.541Z,999.90
2022-09-05T16:50:01.263Z,999.90
2022-09-05T16:52:39.846Z,999.90
2022-09-05T16:55:33.319Z,999.90
2022-09-05T16:58:14.367Z,999.90
2022-09-05T17:00:55.808Z,999.90
2022-09-05T17:03:34.626Z,999.90
2022-09-05T17:06:25.511Z,999.90
2022-09-05T17:09:13.556Z,999.90
2022-09-05T17:12:00.139Z,999.90
2022-09-05T17:14:35.015Z,999.90
2022-09-05T17:17:20.383Z,999.90
2022-09-05T17:20:06.229Z,999.90
2022-09-05T17:24:58.117Z,999.90
2022-09-05T17:29:16.098Z,999.90
2022-09-05T17:29:26.023Z,999.90
2022-09-05T17:34:42.343Z,999.90
2022-09-05T17:37:25.246Z,999.90
2022-09-05T17:40:00.527Z,999.90
2022-09-05T17:42:46.259Z,999.90
2022-09-05T17:45:21.678Z,999.90
2022-09-05T17:47:52.438Z,999.90
2022-09-05T17:50:41.815Z,999.90
2022-09-05T17:53:26.269Z,999.90
2022-09-05T17:56:32.885Z,999.90
2022-09-05T17:59:08.195Z,999.90
2022-09-05T18:01:36.720Z,999.90
2022-09-05T18:04:17.588Z,999.90
2022-09-05T18:07:00.736Z,999.90
2022-09-05T18:10:12.324Z,999.90
2022-09-05T18:13:31.084Z,999.90
2022-09-05T18:16:04.731Z,999.90
2022-09-05T18:19:28.718Z,999.90
2022-09-05T18:21:26.198Z,999.90
2022-09-05T18:24:03.358Z,999.90
2022-09-05T18:26:39.389Z,999.90
2022-09-05T18:29:16.515Z,999.90
2022-09-05T18:32:02.806Z,999.90
2022-09-05T18:34:44.596Z,999.90
2022-09-05T18:38:00.113Z,999.90
2022-09-05T18:40:52.903Z,999.90
2022-09-05T18:43:42.496Z,999.90
2022-09-05T18:46:29.224Z,999.90
2022-09-05T18:50:22.001Z,999.90
2022-09-05T18:51:54.791Z,999.90
2022-09-05T18:54:26.144Z,999.90
2022-09-05T18:57:28.625Z,999.90
2022-09-05T18:59:51.914Z,999.90
2022-09-05T19:02:34.900Z,999.90
2022-09-05T19:05:17.966Z,999.90
2022-09-05T19:07:50.730Z,999.90
2022-09-05T19:10:36.075Z,999.90
2022-09-05T19:13:12.247Z,999.90
2022-09-05T19:15:48.403Z,999.90
2022-09-05T19:18:26.854Z,999.90
2022-09-05T19:21:11.910Z,999.90
2022-09-05T19:23:47.787Z,999.90
2022-09-05T19:26:15.874Z,999.90
2022-09-05T19:34:56.302Z,999.90
2022-09-05T19:36:53.901Z,999.90
2022-09-05T19:37:15.380Z,999.90
2022-09-05T19:37:30.415Z,999.90
2022-09-05T19:43:28.361Z,999.90
2022-09-05T19:47:33.798Z,999.90
2022-09-05T19:47:41.669Z,999.90
2022-09-05T19:48:35.600Z,999.90
2022-09-05T19:51:17.369Z,999.90
2022-09-05T19:53:53.444Z,999.90
2022-09-05T19:56:36.833Z,999.90
2022-09-05T19:59:16.734Z,999.90
2022-09-05T20:01:46.229Z,999.90
2022-09-05T20:04:18.612Z,999.90
2022-09-05T20:06:49.183Z,999.90
2022-09-05T20:09:18.956Z,999.90
2022-09-05T20:11:53.407Z,999.90
2022-09-05T20:14:26.810Z,999.90
2022-09-05T20:16:58.047Z,787.93
2022-09-05T20:19:31.115Z,768.27
2022-09-05T20:22:10.130Z,999.90
2022-09-05T20:24:56.365Z,999.90
2022-09-05T20:27:30.341Z,999.90
2022-09-05T20:30:01.709Z,999.90
2022-09-05T20:32:40.450Z,999.90
2022-09-05T20:39:03.950Z,999.90
2022-09-05T20:43:21.591Z,999.90
2022-09-05T20:43:23.028Z,999.90
2022-09-05T20:44:01.414Z,999.90
2022-09-05T20:53:11.101Z,999.90
2022-09-05T20:54:15.601Z,999.90
2022-09-05T20:59:20.188Z,999.90
2022-09-05T21:02:04.280Z,999.90
2022-09-05T21:04:43.386Z,999.90
2022-09-05T21:07:26.273Z,999.90
2022-09-05T21:10:02.767Z,999.90
2022-09-05T21:12:43.907Z,999.90
2022-09-05T21:15:53.884Z,999.90
2022-09-05T21:18:34.181Z,999.90
2022-09-05T21:21:28.581Z,999.90
2022-09-05T21:27:29.156Z,999.90
2022-09-05T21:32:53.667Z,999.90
2022-09-05T21:35:34.230Z,999.90
2022-09-05T21:38:32.104Z,726.43
2022-09-05T21:41:16.211Z,999.90
2022-09-05T21:47:34.773Z,999.90
2022-09-05T21:47:55.983Z,679.70
2022-09-05T21:50:30.799Z,999.90
2022-09-05T21:59:22.148Z,999.90
2022-09-05T21:59:29.609Z,730.33
2022-09-05T21:59:37.000Z,739.20
2022-09-05T22:02:14.402Z,999.90
2022-09-05T22:05:03.088Z,999.90
2022-09-05T22:07:56.155Z,999.90
2022-09-05T22:10:52.549Z,999.90
2022-09-05T22:13:35.504Z,999.90
2022-09-05T22:16:45.226Z,999.90
2022-09-05T22:19:24.860Z,999.90
2022-09-05T22:22:21.468Z,999.90
2022-09-05T22:25:07.468Z,999.90
2022-09-05T22:27:39.337Z,999.90
2022-09-05T22:30:21.067Z,999.90
2022-09-05T22:32:55.973Z,999.90
2022-09-05T22:35:31.859Z,788.87
2022-09-05T22:38:14.184Z,808.50
2022-09-05T22:41:00.070Z,801.83
2022-09-05T22:43:37.919Z,325.03
2022-09-05T22:46:13.511Z,841.27
2022-09-05T22:48:43.685Z,877.00
2022-09-05T22:51:23.733Z,444.03
2022-09-05T22:54:16.867Z,461.83
2022-09-05T22:56:54.025Z,342.10
2022-09-05T22:59:39.175Z,392.47
2022-09-05T23:02:10.271Z,800.23
2022-09-05T23:04:47.639Z,716.97
2022-09-05T23:07:32.427Z,759.80
2022-09-05T23:10:03.648Z,999.90
2022-09-05T23:12:47.006Z,999.90
2022-09-05T23:15:24.890Z,999.90
2022-09-05T23:18:04.793Z,999.90
2022-09-05T23:23:44.352Z,999.90
2022-09-05T23:26:16.399Z,999.90
2022-09-05T23:28:55.250Z,723.50
2022-09-05T23:31:26.186Z,740.23
2022-09-05T23:34:03.822Z,225.90
2022-09-05T23:36:43.777Z,846.20
2022-09-05T23:39:15.485Z,387.13
2022-09-05T23:41:56.740Z,530.30
2022-09-05T23:44:35.772Z,776.43
2022-09-05T23:47:11.398Z,760.07
2022-09-05T23:49:42.599Z,671.73
2022-09-05T23:52:17.269Z,452.13
2022-09-05T23:55:04.058Z,999.90
2022-09-05T23:57:37.500Z,999.90
